Time;durP1;ratioP1;P1;durP2;ratioP2;P2;SDS_P1;SDS_P2;PMS_P1;PMS_P2;Temp;Humidity;BMP_temperature;BMP_pressure;BME280_temperature;BME280_humidity;BME280_pressure;Samples;Min_cycle;Max_cycle;Signal;HPM_P1;HPM_P2
2024/01/29 00:01:50;;;;;;;10.43;5.53;;;;;;;-145.18;100.00;46787.38;5033705;28;20034;-83
2024/01/29 00:04:16;;;;;;;12.53;6.27;;;;;;;-145.18;100.00;46793.22;5023279;28;20442;-82
2024/01/29 00:06:41;;;;;;;9.77;5.60;;;;;;;-145.18;100.00;46791.28;5031436;28;20049;-81
2024/01/29 00:09:07;;;;;;;9.67;5.50;;;;;;;-145.18;100.00;46787.38;5016616;28;20073;-82
2024/01/29 00:11:33;;;;;;;13.87;6.33;;;;;;;-145.18;100.00;46783.47;4999707;28;20096;-81
2024/01/29 00:13:59;;;;;;;11.33;5.63;;;;;;;-145.18;100.00;46777.59;5023736;28;20084;-81
2024/01/29 00:16:24;;;;;;;12.03;6.20;;;;;;;-145.18;100.00;46781.50;5027793;28;20374;-82
2024/01/29 00:18:50;;;;;;;11.70;6.30;;;;;;;-145.18;100.00;46773.69;5014239;28;20346;-82
2024/01/29 00:21:16;;;;;;;9.90;5.70;;;;;;;-145.18;100.00;46777.59;5013930;28;20037;-81
2024/01/29 00:23:41;;;;;;;9.30;5.63;;;;;;;-145.18;100.00;46781.50;5014989;28;20096;-82
2024/01/29 00:26:06;;;;;;;8.27;6.33;;;;;;;-145.18;100.00;46775.66;5015324;28;20033;-80
2024/01/29 00:28:32;;;;;;;11.90;5.37;;;;;;;-145.18;100.00;46779.56;5015176;28;20034;-81
2024/01/29 00:30:57;;;;;;;11.10;5.17;;;;;;;-145.18;100.00;46777.59;5015161;28;20440;-80
2024/01/29 00:33:22;;;;;;;12.23;5.87;;;;;;;-145.18;100.00;46785.41;5015124;28;20032;-80
2024/01/29 00:35:48;;;;;;;15.57;6.30;;;;;;;-145.18;100.00;46787.38;5013408;28;20034;-80
2024/01/29 00:38:13;;;;;;;12.50;5.70;;;;;;;-145.18;100.00;46783.47;5024979;28;20049;-81
2024/01/29 00:40:38;;;;;;;10.27;5.17;;;;;;;-145.18;100.00;46785.41;5032141;28;20067;-80
2024/01/29 00:43:04;;;;;;;11.60;6.03;;;;;;;-145.18;100.00;46783.47;5023086;28;20074;-80
2024/01/29 00:45:29;;;;;;;12.77;6.87;;;;;;;-145.18;100.00;46783.47;5011838;28;20030;-80
2024/01/29 00:47:55;;;;;;;9.87;5.80;;;;;;;-145.18;100.00;46781.50;5018672;28;20049;-80
2024/01/29 00:50:20;;;;;;;11.40;6.67;;;;;;;-145.18;100.00;46785.41;5029339;28;20053;-80
2024/01/29 00:52:46;;;;;;;9.03;6.13;;;;;;;-145.18;100.00;46787.38;5015788;28;20115;-80
2024/01/29 00:55:12;;;;;;;10.10;6.13;;;;;;;-145.18;100.00;46785.41;5029996;28;20034;-80
2024/01/29 00:57:38;;;;;;;14.57;5.97;;;;;;;-145.18;100.00;46787.38;5023274;28;20495;-80
2024/01/29 01:00:06;;;;;;;10.77;5.57;;;;;;;-145.18;100.00;46785.41;5032573;28;20038;-80
2024/01/29 01:02:32;;;;;;;9.00;5.77;;;;;;;-145.18;100.00;46779.56;5033499;28;20263;-80
2024/01/29 01:04:57;;;;;;;10.87;5.77;;;;;;;-145.18;100.00;46785.41;5014539;28;20250;-81
2024/01/29 01:07:23;;;;;;;14.30;5.57;;;;;;;-145.18;100.00;46777.59;5005412;28;20077;-80
2024/01/29 01:09:48;;;;;;;15.13;5.83;;;;;;;-145.18;100.00;46773.69;5026050;28;20045;-80
2024/01/29 01:12:13;;;;;;;10.83;6.07;;;;;;;-145.18;100.00;46773.69;5023294;28;20044;-80
2024/01/29 01:14:39;;;;;;;8.30;5.13;;;;;;;-145.18;100.00;46777.59;5032517;28;20025;-80
2024/01/29 01:17:04;;;;;;;12.10;5.73;;;;;;;-145.18;100.00;46779.56;5032804;28;20524;-81
2024/01/29 01:19:30;;;;;;;11.07;5.43;;;;;;;-145.18;100.00;46779.56;5032672;28;20029;-81
2024/01/29 01:21:55;;;;;;;10.47;5.20;;;;;;;-145.18;100.00;46777.59;5023689;28;20062;-80
2024/01/29 01:24:20;;;;;;;11.03;5.27;;;;;;;-145.18;100.00;46779.56;5022497;28;20121;-81
2024/01/29 01:26:46;;;;;;;8.90;5.73;;;;;;;-145.18;100.00;46777.59;5012947;28;20041;-81
2024/01/29 01:29:11;;;;;;;8.57;5.40;;;;;;;-145.18;100.00;46777.59;5013795;28;20033;-80
2024/01/29 01:31:36;;;;;;;10.17;5.77;;;;;;;-145.18;100.00;46781.50;4996425;28;20088;-80
2024/01/29 01:34:02;;;;;;;10.73;5.63;;;;;;;-145.18;100.00;46787.38;5013551;28;20132;-80
2024/01/29 01:36:27;;;;;;;10.40;6.20;;;;;;;-145.18;100.00;46783.47;4996241;28;20556;-82
2024/01/29 01:38:53;;;;;;;9.40;5.30;;;;;;;-145.18;100.00;46785.41;5013483;28;20057;-81
2024/01/29 01:41:18;;;;;;;12.63;5.70;;;;;;;-145.18;100.00;46789.31;5012639;28;20549;-81
2024/01/29 01:43:44;;;;;;;10.67;6.00;;;;;;;-145.18;100.00;46783.47;5028484;28;20038;-82
2024/01/29 01:46:23;;;;;;;12.77;5.70;;;;;;;-145.18;100.00;46793.22;5032727;28;20120;-81
2024/01/29 01:48:53;;;;;;;9.63;5.60;;;;;;;-145.18;100.00;46791.28;5019043;28;20032;-81
2024/01/29 01:51:22;;;;;;;12.00;6.50;;;;;;;-145.18;100.00;46793.22;5032883;28;20259;-80
2024/01/29 01:53:54;;;;;;;11.40;6.43;;;;;;;-145.18;100.00;46797.13;5031684;28;20262;-80
2024/01/29 01:56:20;;;;;;;10.07;5.73;;;;;;;-145.18;100.00;46795.19;5031621;28;20291;-81
2024/01/29 01:58:46;;;;;;;10.20;5.90;;;;;;;-145.18;100.00;46797.13;5031423;28;20259;-81
2024/01/29 02:01:15;;;;;;;11.13;5.87;;;;;;;-145.18;100.00;46803.00;5033125;28;20725;-81
2024/01/29 02:03:42;;;;;;;9.47;5.87;;;;;;;-145.18;100.00;46803.00;5011529;28;20360;-82
2024/01/29 02:06:08;;;;;;;13.20;5.57;;;;;;;-145.18;100.00;46801.03;5025536;28;20741;-82
2024/01/29 02:08:34;;;;;;;12.67;5.40;;;;;;;-145.18;100.00;46801.03;5025724;28;20342;-81
2024/01/29 02:11:02;;;;;;;13.00;6.37;;;;;;;-145.18;100.00;46803.00;5025369;28;20082;-82
2024/01/29 02:13:27;;;;;;;10.97;5.57;;;;;;;-145.18;100.00;46799.09;4999589;28;20503;-81
2024/01/29 02:15:53;;;;;;;11.13;6.60;;;;;;;-145.18;100.00;46803.00;5012172;28;20378;-81
2024/01/29 02:18:18;;;;;;;10.73;5.90;;;;;;;-145.18;100.00;46804.94;5031977;28;20096;-82
2024/01/29 02:20:43;;;;;;;12.97;6.07;;;;;;;-145.18;100.00;46803.00;5018035;28;20133;-82
2024/01/29 02:23:09;;;;;;;10.33;5.73;;;;;;;-145.18;100.00;46804.94;5031104;28;20026;-82
2024/01/29 02:25:35;;;;;;;13.70;6.20;;;;;;;-145.18;100.00;46812.75;5031930;28;20053;-82
2024/01/29 02:28:00;;;;;;;14.77;6.63;;;;;;;-145.18;100.00;46803.00;5010472;28;20061;-82
2024/01/29 02:30:26;;;;;;;9.67;5.50;;;;;;;-145.18;100.00;46803.00;5010666;28;20026;-82
2024/01/29 02:32:51;;;;;;;10.77;6.10;;;;;;;-145.18;100.00;46808.84;5013989;28;20116;-82
2024/01/29 02:35:16;;;;;;;11.87;6.37;;;;;;;-145.18;100.00;46806.91;5013636;28;20036;-82
2024/01/29 02:37:42;;;;;;;8.40;5.43;;;;;;;-145.18;100.00;46803.00;5012035;28;20033;-81
2024/01/29 02:40:08;;;;;;;9.37;5.70;;;;;;;-145.18;100.00;46806.91;5020759;28;20076;-82
2024/01/29 02:42:33;;;;;;;12.30;5.67;;;;;;;-145.18;100.00;46804.94;5014327;28;20487;-82
2024/01/29 02:44:58;;;;;;;13.33;6.77;;;;;;;-145.18;100.00;46806.91;5011861;28;20026;-82
2024/01/29 02:47:24;;;;;;;14.03;6.40;;;;;;;-145.18;100.00;46804.94;5010589;28;20065;-81
2024/01/29 02:49:49;;;;;;;8.57;5.63;;;;;;;-145.18;100.00;46801.03;5012205;28;20549;-80
2024/01/29 02:52:15;;;;;;;12.23;5.67;;;;;;;-145.18;100.00;46801.03;5012450;28;20038;-81
2024/01/29 02:54:41;;;;;;;10.07;5.97;;;;;;;-145.18;100.00;46808.84;5012180;28;20029;-81
2024/01/29 02:57:06;;;;;;;12.17;6.60;;;;;;;-145.18;100.00;46808.84;5011705;28;20327;-80
2024/01/29 02:59:32;;;;;;;13.17;6.27;;;;;;;-145.18;100.00;46808.84;5011767;28;20056;-81
2024/01/29 03:01:58;;;;;;;11.37;6.17;;;;;;;-145.18;100.00;46806.91;5012208;28;20033;-80
2024/01/29 03:04:23;;;;;;;10.80;6.60;;;;;;;-145.18;100.00;46816.66;5012088;28;20099;-81
2024/01/29 03:06:48;;;;;;;9.73;6.57;;;;;;;-145.18;100.00;46818.63;5011768;28;20054;-80
2024/01/29 03:09:14;;;;;;;12.70;6.43;;;;;;;-145.18;100.00;46816.66;5022953;28;20049;-80
2024/01/29 03:11:40;;;;;;;10.73;6.60;;;;;;;-145.18;100.00;46818.63;5012525;28;20030;-80
2024/01/29 03:14:06;;;;;;;12.70;7.00;;;;;;;-145.18;100.00;46818.63;5012338;28;20038;-80
2024/01/29 03:16:31;;;;;;;12.87;6.43;;;;;;;-145.18;100.00;46820.56;5011234;28;20290;-80
2024/01/29 03:18:57;;;;;;;14.70;6.47;;;;;;;-145.18;100.00;46824.47;5012192;28;20030;-80
2024/01/29 03:21:23;;;;;;;10.73;6.13;;;;;;;-145.18;100.00;46824.47;5011900;28;20081;-80
2024/01/29 03:23:48;;;;;;;11.30;6.60;;;;;;;-145.18;100.00;46826.44;5012286;28;20045;-80
2024/01/29 03:26:13;;;;;;;16.43;6.67;;;;;;;-145.18;100.00;46826.44;5011622;28;20038;-81
2024/01/29 03:28:40;;;;;;;14.87;6.67;;;;;;;-145.18;100.00;46824.47;5012452;28;20042;-81
2024/01/29 03:31:05;;;;;;;11.37;6.40;;;;;;;-145.18;100.00;46826.44;5016756;28;20034;-79
2024/01/29 03:33:31;;;;;;;12.43;7.13;;;;;;;-145.18;100.00;46826.44;5031393;28;20259;-81
2024/01/29 03:35:56;;;;;;;11.17;6.27;;;;;;;-145.18;100.00;46832.28;5017978;28;20077;-81
2024/01/29 03:38:21;;;;;;;9.47;6.33;;;;;;;-145.18;100.00;46828.38;5021240;28;20061;-81
2024/01/29 03:40:47;;;;;;;9.47;6.20;;;;;;;-145.18;100.00;46828.38;5015009;28;20113;-80
2024/01/29 03:43:12;;;;;;;10.60;6.43;;;;;;;-145.18;100.00;46832.28;5030833;28;20025;-80
2024/01/29 03:45:38;;;;;;;12.17;6.63;;;;;;;-145.18;100.00;46832.28;5029609;28;20025;-80
2024/01/29 03:48:03;;;;;;;11.30;6.57;;;;;;;-145.18;100.00;46832.28;5030811;28;20452;-80
2024/01/29 03:50:29;;;;;;;13.97;6.57;;;;;;;-145.18;100.00;46832.28;5030212;28;20033;-80
2024/01/29 03:52:54;;;;;;;13.33;6.70;;;;;;;-145.18;100.00;46834.25;5030560;28;20079;-81
2024/01/29 03:55:19;;;;;;;10.50;6.00;;;;;;;-145.18;100.00;46834.25;5030102;28;20037;-81
2024/01/29 03:57:45;;;;;;;11.63;6.93;;;;;;;-145.18;100.00;46832.28;5030390;28;20025;-81
2024/01/29 04:00:11;;;;;;;10.40;6.23;;;;;;;-145.18;100.00;46832.28;5030008;28;20111;-80
2024/01/29 04:02:36;;;;;;;10.03;6.47;;;;;;;-145.18;100.00;46824.47;5030324;28;20072;-79
2024/01/29 04:05:02;;;;;;;9.13;6.20;;;;;;;-145.18;100.00;46828.38;4998631;28;20026;-80
2024/01/29 04:07:27;;;;;;;14.67;7.73;;;;;;;-145.18;100.00;46828.38;5030550;28;20045;-80
2024/01/29 04:09:53;;;;;;;14.77;6.93;;;;;;;-145.18;100.00;46830.34;5028707;28;20029;-80
2024/01/29 04:12:18;;;;;;;13.10;6.90;;;;;;;-145.18;100.00;46828.38;5029992;28;20501;-80
2024/01/29 04:14:44;;;;;;;11.17;6.37;;;;;;;-145.18;100.00;46828.38;5028908;28;20038;-80
2024/01/29 04:17:12;;;;;;;11.17;6.40;;;;;;;-145.18;100.00;46830.34;5030369;28;20449;-80
2024/01/29 04:19:38;;;;;;;24.10;6.43;;;;;;;-145.18;100.00;46832.28;5032671;28;20053;-80
2024/01/29 04:22:04;;;;;;;14.03;7.47;;;;;;;-145.18;100.00;46830.34;5033318;28;20265;-80
2024/01/29 04:24:30;;;;;;;12.57;6.53;;;;;;;-145.18;100.00;46834.25;5032064;28;20269;-80
2024/01/29 04:26:56;;;;;;;10.77;6.67;;;;;;;-145.18;100.00;46832.28;5033603;28;20047;-80
2024/01/29 04:29:22;;;;;;;14.63;6.93;;;;;;;-145.18;100.00;46826.44;5032006;28;20022;-80
2024/01/29 04:31:47;;;;;;;15.67;7.10;;;;;;;-145.18;100.00;46832.28;5024522;28;20037;-79
2024/01/29 04:34:12;;;;;;;14.33;7.17;;;;;;;-145.18;100.00;46832.28;5027991;28;20030;-81
2024/01/29 04:36:38;;;;;;;12.47;6.13;;;;;;;-145.18;100.00;46834.25;5032983;28;20040;-80
2024/01/29 04:39:03;;;;;;;14.23;6.83;;;;;;;-145.18;100.00;46836.19;5020239;28;20076;-80
2024/01/29 04:41:29;;;;;;;13.43;7.50;;;;;;;-145.18;100.00;46844.00;5033732;28;20115;-80
2024/01/29 04:43:54;;;;;;;12.00;6.70;;;;;;;-145.18;100.00;46840.09;5033392;28;20062;-81
2024/01/29 04:46:20;;;;;;;11.00;6.60;;;;;;;-145.18;100.00;46836.19;5033723;28;20101;-80
2024/01/29 04:48:45;;;;;;;16.47;7.03;;;;;;;-145.18;100.00;46840.09;4999639;28;20137;-80
2024/01/29 04:51:12;;;;;;;14.67;7.27;;;;;;;-145.18;100.00;46838.16;5014262;28;20057;-80
2024/01/29 04:53:38;;;;;;;12.00;6.60;;;;;;;-145.18;100.00;46844.00;5013912;28;20710;-80
2024/01/29 04:56:04;;;;;;;9.87;6.50;;;;;;;-145.18;100.00;46845.97;5013825;28;20322;-80
2024/01/29 04:58:30;;;;;;;13.93;6.93;;;;;;;-145.18;100.00;46842.06;5016444;28;20283;-80
2024/01/29 05:00:55;;;;;;;12.30;6.47;;;;;;;-145.18;100.00;46842.06;5024435;28;20342;-79
2024/01/29 05:03:21;;;;;;;14.47;7.27;;;;;;;-145.18;100.00;46845.97;5013918;28;20373;-80
2024/01/29 05:05:47;;;;;;;12.50;6.97;;;;;;;-145.18;100.00;46849.88;5013776;28;20105;-81
2024/01/29 05:08:13;;;;;;;13.00;6.80;;;;;;;-145.18;100.00;46849.88;5014445;28;20538;-80
2024/01/29 05:10:39;;;;;;;11.27;6.57;;;;;;;-145.18;100.00;46851.81;5014186;28;20030;-80
2024/01/29 05:13:04;;;;;;;12.87;6.87;;;;;;;-145.18;100.00;46851.81;5014101;28;20266;-80
2024/01/29 05:15:30;;;;;;;14.50;7.83;;;;;;;-145.18;100.00;46853.78;5014593;28;20038;-80
2024/01/29 05:17:56;;;;;;;10.10;6.53;;;;;;;-145.18;100.00;46859.63;5012971;28;20455;-82
2024/01/29 05:20:21;;;;;;;10.17;6.60;;;;;;;-145.18;100.00;46853.78;5013625;28;20038;-80
2024/01/29 05:22:47;;;;;;;16.83;8.40;;;;;;;-145.18;100.00;46855.72;5013329;28;20279;-80
2024/01/29 05:25:12;;;;;;;10.33;6.27;;;;;;;-145.18;100.00;46863.53;5011984;28;20045;-81
2024/01/29 05:27:37;;;;;;;13.07;7.50;;;;;;;-145.18;100.00;46861.59;5014841;28;20391;-80
2024/01/29 05:30:03;;;;;;;14.27;6.93;;;;;;;-145.18;100.00;46859.63;5031802;28;20065;-81
2024/01/29 05:32:28;;;;;;;10.30;7.10;;;;;;;-145.18;100.00;46859.63;5032475;28;20462;-80
2024/01/29 05:34:54;;;;;;;12.27;7.27;;;;;;;-145.18;100.00;46859.63;5032743;28;20095;-80
2024/01/29 05:37:19;;;;;;;12.53;7.03;;;;;;;-145.18;100.00;46861.59;5030595;28;20469;-81
2024/01/29 05:39:45;;;;;;;11.30;6.73;;;;;;;-145.18;100.00;46863.53;5021573;28;20482;-81
2024/01/29 05:42:10;;;;;;;13.47;7.10;;;;;;;-145.18;100.00;46863.53;5018395;28;20038;-80
2024/01/29 05:44:36;;;;;;;16.97;7.20;;;;;;;-145.18;100.00;46863.53;5021140;28;20021;-80
2024/01/29 05:47:01;;;;;;;12.37;7.57;;;;;;;-145.18;100.00;46865.50;5017031;28;20041;-80
2024/01/29 05:49:27;;;;;;;13.30;7.10;;;;;;;-145.18;100.00;46865.50;5019612;28;20591;-81
2024/01/29 05:51:52;;;;;;;17.77;7.90;;;;;;;-145.18;100.00;46865.50;5010657;28;20030;-80
2024/01/29 05:54:18;;;;;;;16.27;7.23;;;;;;;-145.18;100.00;46867.44;5008557;28;20509;-80
2024/01/29 05:56:45;;;;;;;19.17;7.17;;;;;;;-145.18;100.00;46863.53;5014639;28;20046;-81
2024/01/29 05:59:11;;;;;;;10.77;6.10;;;;;;;-145.18;100.00;46865.50;5008586;28;20034;-79
2024/01/29 06:01:36;;;;;;;11.13;6.63;;;;;;;-145.18;100.00;46865.50;5016377;28;20366;-80
2024/01/29 06:04:02;;;;;;;13.87;7.10;;;;;;;-145.18;100.00;46867.44;5010002;28;20033;-79
2024/01/29 06:06:27;;;;;;;17.03;7.37;;;;;;;-145.18;100.00;46869.41;5015177;28;20084;-79
2024/01/29 06:08:53;;;;;;;15.07;7.30;;;;;;;-145.18;100.00;46867.44;5010199;28;20026;-80
2024/01/29 06:11:19;;;;;;;12.83;6.83;;;;;;;-145.18;100.00;46873.31;5011740;28;20095;-80
2024/01/29 06:13:45;;;;;;;12.20;6.77;;;;;;;-145.18;100.00;46873.31;5010937;28;20256;-79
2024/01/29 06:16:10;;;;;;;12.70;7.07;;;;;;;-145.18;100.00;46869.41;5012359;28;20287;-81
2024/01/29 06:18:36;;;;;;;14.07;7.40;;;;;;;-145.18;100.00;46881.13;5007845;28;20038;-81
2024/01/29 06:21:01;;;;;;;17.37;7.47;;;;;;;-145.18;100.00;46879.19;5010688;28;20118;-81
2024/01/29 06:23:28;;;;;;;11.23;6.77;;;;;;;-145.18;100.00;46877.22;5010322;28;20375;-81
2024/01/29 06:25:54;;;;;;;15.37;8.13;;;;;;;-145.18;100.00;46881.13;5011308;28;20533;-81
2024/01/29 06:28:19;;;;;;;12.17;6.57;;;;;;;-145.18;100.00;46879.19;4993129;28;20291;-80
2024/01/29 06:30:44;;;;;;;11.73;6.50;;;;;;;-145.18;100.00;46879.19;5009821;28;20069;-81
2024/01/29 06:33:10;;;;;;;15.27;6.83;;;;;;;-145.18;100.00;46879.19;5010152;28;21085;-82
2024/01/29 06:35:35;;;;;;;11.33;6.20;;;;;;;-145.18;100.00;46883.09;5010686;28;20061;-82
2024/01/29 06:38:04;;;;;;;12.00;6.80;;;;;;;-145.18;100.00;46881.13;5009525;28;20044;-79
2024/01/29 06:40:29;;;;;;;14.43;6.27;;;;;;;-145.18;100.00;46881.13;5010859;28;20051;-82
2024/01/29 06:42:58;;;;;;;11.70;7.00;;;;;;;-145.18;100.00;46879.19;5011377;28;20260;-81
2024/01/29 06:45:23;;;;;;;12.83;6.53;;;;;;;-145.18;100.00;46881.13;5009659;28;20495;-79
2024/01/29 06:47:49;;;;;;;11.97;6.13;;;;;;;-145.18;100.00;46877.22;4992868;28;20314;-90
2024/01/29 06:50:14;;;;;;;12.63;7.30;;;;;;;-145.18;100.00;46881.13;4996136;28;20038;-89
2024/01/29 06:52:40;;;;;;;14.03;8.13;;;;;;;-145.18;100.00;46879.19;5016731;28;20029;-90
2024/01/29 06:55:05;;;;;;;15.87;6.70;;;;;;;-145.18;100.00;46885.03;5015801;28;20467;-89
2024/01/29 06:57:31;;;;;;;9.90;6.47;;;;;;;-145.18;100.00;46883.09;5006195;28;20419;-91
2024/01/29 06:59:56;;;;;;;14.40;6.97;;;;;;;-145.18;100.00;46883.09;5015267;28;20109;-92
2024/01/29 07:02:22;;;;;;;13.50;6.47;;;;;;;-145.18;100.00;46887.00;5009194;28;20064;-90
2024/01/29 07:04:47;;;;;;;11.97;6.70;;;;;;;-145.18;100.00;46885.03;5001012;28;20026;-90
2024/01/29 07:07:13;;;;;;;11.90;7.00;;;;;;;-145.18;100.00;46887.00;4980052;28;20112;-89
2024/01/29 07:09:40;;;;;;;13.73;7.27;;;;;;;-145.18;100.00;46888.94;5013878;28;20069;-90
2024/01/29 07:12:06;;;;;;;12.23;7.03;;;;;;;-145.18;100.00;46885.03;4995908;28;20064;-90
2024/01/29 07:14:31;;;;;;;11.20;6.80;;;;;;;-145.18;100.00;46883.09;5017593;28;20736;-89
2024/01/29 07:16:56;;;;;;;10.47;6.77;;;;;;;-145.18;100.00;46885.03;5013376;28;20026;-89
2024/01/29 07:19:26;;;;;;;15.07;6.97;;;;;;;-145.18;100.00;46885.03;5017753;28;20086;-88
2024/01/29 07:21:52;;;;;;;15.57;7.87;;;;;;;-145.18;100.00;46888.94;5000590;28;20041;-89
2024/01/29 07:24:18;;;;;;;14.07;7.27;;;;;;;-145.18;100.00;46890.91;5019850;28;20263;-89
2024/01/29 07:26:43;;;;;;;18.23;7.40;;;;;;;-145.18;100.00;46887.00;5015660;28;20057;-85
2024/01/29 07:29:08;;;;;;;12.30;6.87;;;;;;;-145.18;100.00;46887.00;5018322;28;20095;-82
2024/01/29 07:31:35;;;;;;;11.50;7.30;;;;;;;-145.18;100.00;46892.84;5019860;28;20037;-83
2024/01/29 07:34:00;;;;;;;13.50;7.63;;;;;;;-145.18;100.00;46885.03;5004267;28;20034;-82
2024/01/29 07:36:27;;;;;;;13.80;7.07;;;;;;;-145.18;100.00;46888.94;5014535;28;20283;-85
2024/01/29 07:38:52;;;;;;;14.23;7.83;;;;;;;-145.18;100.00;46890.91;5014222;28;20108;-85
2024/01/29 07:41:18;;;;;;;12.67;7.77;;;;;;;-145.18;100.00;46890.91;5013627;28;20297;-84
2024/01/29 07:43:44;;;;;;;18.17;8.03;;;;;;;-145.18;100.00;46894.81;5012675;28;20029;-85
2024/01/29 07:46:10;;;;;;;12.30;7.23;;;;;;;-145.18;100.00;46892.84;5030760;28;20273;-84
2024/01/29 07:48:35;;;;;;;11.73;7.03;;;;;;;-145.18;100.00;46888.94;5029870;28;20429;-83
2024/01/29 07:51:01;;;;;;;16.00;7.37;;;;;;;-145.18;100.00;46890.91;5019237;28;20275;-84
2024/01/29 07:53:26;;;;;;;17.47;6.87;;;;;;;-145.18;100.00;46885.03;5018029;28;20108;-84
2024/01/29 07:55:52;;;;;;;13.47;7.00;;;;;;;-145.18;100.00;46887.00;5013840;28;20034;-83
2024/01/29 07:58:17;;;;;;;16.63;7.67;;;;;;;-145.18;100.00;46888.94;5018873;28;20450;-84
2024/01/29 08:00:42;;;;;;;11.90;6.77;;;;;;;-145.18;100.00;46890.91;5034759;28;20029;-83
2024/01/29 08:03:09;;;;;;;14.07;7.57;;;;;;;-145.18;100.00;46883.09;5016007;28;20036;-83
2024/01/29 08:05:34;;;;;;;14.10;7.33;;;;;;;-145.18;100.00;46885.03;5034564;28;20470;-83
2024/01/29 08:08:00;;;;;;;13.00;7.47;;;;;;;-145.18;100.00;46885.03;5034308;28;20345;-82
2024/01/29 08:10:25;;;;;;;12.93;7.40;;;;;;;-145.18;100.00;46883.09;5034840;28;20475;-83
2024/01/29 08:12:50;;;;;;;13.70;7.13;;;;;;;-145.18;100.00;46887.00;5003338;28;20037;-82
2024/01/29 08:15:16;;;;;;;17.33;8.00;;;;;;;-145.18;100.00;46883.09;5034696;28;20390;-82
2024/01/29 08:17:41;;;;;;;13.63;7.60;;;;;;;-145.18;100.00;46875.28;5002862;28;20030;-82
2024/01/29 08:20:07;;;;;;;14.40;7.77;;;;;;;-145.18;100.00;46877.22;5031637;28;20038;-82
2024/01/29 08:22:33;;;;;;;14.77;6.97;;;;;;;-145.18;100.00;46873.31;5026540;28;20052;-82
2024/01/29 08:24:59;;;;;;;16.67;7.40;;;;;;;-145.18;100.00;46871.38;5013549;28;20064;-83
2024/01/29 08:27:24;;;;;;;15.43;7.50;;;;;;;-145.18;100.00;46873.31;5017621;28;20395;-81
2024/01/29 08:29:50;;;;;;;18.90;7.53;;;;;;;-145.18;100.00;46869.41;5017942;28;20353;-83
2024/01/29 08:32:15;;;;;;;14.87;6.97;;;;;;;-145.18;100.00;46867.44;5015384;28;20090;-82
2024/01/29 08:34:40;;;;;;;14.07;7.43;;;;;;;-145.18;100.00;46865.50;5022020;28;20411;-82
2024/01/29 08:37:06;;;;;;;15.37;7.73;;;;;;;-145.18;100.00;46867.44;5019027;28;20029;-81
2024/01/29 08:39:32;;;;;;;13.50;7.33;;;;;;;-145.18;100.00;46867.44;5013855;28;20061;-81
2024/01/29 08:41:57;;;;;;;13.90;7.30;;;;;;;-145.18;100.00;46863.53;5014665;28;20026;-81
2024/01/29 08:44:23;;;;;;;13.23;7.53;;;;;;;-145.18;100.00;46857.69;5014449;28;20088;-82
2024/01/29 08:46:49;;;;;;;12.53;7.97;;;;;;;-145.18;100.00;46857.69;5013019;28;20092;-82
2024/01/29 08:49:16;;;;;;;14.43;7.93;;;;;;;-145.18;100.00;46857.69;5001549;28;20267;-82
2024/01/29 08:51:42;;;;;;;16.00;7.27;;;;;;;-145.18;100.00;46847.91;5014182;28;20033;-82
2024/01/29 08:54:08;;;;;;;21.47;8.20;;;;;;;-145.18;100.00;46849.88;5013867;28;20263;-81
2024/01/29 08:56:34;;;;;;;18.57;8.70;;;;;;;-145.18;100.00;46851.81;5014589;28;20478;-83
2024/01/29 08:58:59;;;;;;;13.60;8.13;;;;;;;-145.18;100.00;46849.88;5014125;28;20084;-82
2024/01/29 09:01:24;;;;;;;15.60;7.30;;;;;;;-145.18;100.00;46851.81;5011848;28;20030;-85
2024/01/29 09:03:51;;;;;;;15.00;8.30;;;;;;;-145.18;100.00;46851.81;5013409;28;20033;-85
2024/01/29 09:06:17;;;;;;;12.90;8.27;;;;;;;-145.18;100.00;46851.81;5005499;28;20029;-80
2024/01/29 09:08:43;;;;;;;13.97;7.93;;;;;;;-145.18;100.00;46847.91;5033777;28;20278;-81
2024/01/29 09:11:08;;;;;;;18.20;9.07;;;;;;;-145.18;100.00;46845.97;5033359;28;20088;-81
2024/01/29 09:13:34;;;;;;;14.13;7.90;;;;;;;-145.18;100.00;46844.00;5033773;28;20338;-81
2024/01/29 09:15:59;;;;;;;16.23;7.90;;;;;;;-145.18;100.00;46845.97;5002165;28;20037;-81
2024/01/29 09:18:24;;;;;;;19.83;8.63;;;;;;;-145.18;100.00;46844.00;5033112;28;20061;-81
2024/01/29 09:20:50;;;;;;;14.10;8.63;;;;;;;-145.18;100.00;46842.06;5001924;28;20038;-82
2024/01/29 09:23:15;;;;;;;17.70;8.27;;;;;;;-145.18;100.00;46844.00;5032123;28;20140;-81
2024/01/29 09:25:41;;;;;;;14.10;8.47;;;;;;;-145.18;100.00;46845.97;5032184;28;20033;-82
2024/01/29 09:28:07;;;;;;;13.60;8.10;;;;;;;-145.18;100.00;46838.16;5031840;28;20037;-82
2024/01/29 09:30:32;;;;;;;15.13;7.93;;;;;;;-145.18;100.00;46842.06;5031145;28;20597;-82
2024/01/29 09:32:59;;;;;;;15.10;8.03;;;;;;;-145.18;100.00;46838.16;5028109;28;20038;-82
2024/01/29 09:35:24;;;;;;;12.77;7.63;;;;;;;-145.18;100.00;46840.09;5027083;28;20534;-81
2024/01/29 09:37:50;;;;;;;12.40;7.83;;;;;;;-145.18;100.00;46842.06;5022964;28;20346;-83
2024/01/29 09:40:15;;;;;;;17.97;9.00;;;;;;;-145.18;100.00;46838.16;5013607;28;20034;-81
2024/01/29 09:42:41;;;;;;;15.33;8.63;;;;;;;-145.18;100.00;46836.19;5013544;28;20106;-83
2024/01/29 09:45:11;;;;;;;15.50;8.03;;;;;;;-145.18;100.00;46844.00;5026364;28;20385;-81
2024/01/29 09:47:38;;;;;;;13.27;8.97;;;;;;;-145.18;100.00;46842.06;5019741;28;20017;-90
2024/01/29 09:50:08;;;;;;;16.50;8.77;;;;;;;-145.18;100.00;46840.09;5010145;28;20763;-91
2024/01/29 09:52:37;;;;;;;23.77;11.03;;;;;;;-145.18;100.00;46836.19;5010973;28;20271;-91
2024/01/29 09:55:05;;;;;;;15.57;8.73;;;;;;;-145.18;100.00;46836.19;4981972;28;20370;-92
2024/01/29 09:57:31;;;;;;;16.73;9.03;;;;;;;-145.18;100.00;46832.28;4989330;28;20337;-92
2024/01/29 09:59:57;;;;;;;15.53;8.50;;;;;;;-145.18;100.00;46828.38;5000207;28;20277;-90
2024/01/29 10:02:24;;;;;;;23.57;8.70;;;;;;;-145.18;100.00;46828.38;4992780;28;20279;-91
2024/01/29 10:04:49;;;;;;;15.70;9.67;;;;;;;-145.18;100.00;46820.56;4998680;28;20029;-90
2024/01/29 10:07:15;;;;;;;14.93;8.63;;;;;;;-145.18;100.00;46816.66;5016658;28;20287;-91
2024/01/29 10:09:40;;;;;;;15.03;8.33;;;;;;;-145.18;100.00;46814.72;4982467;28;20033;-90
2024/01/29 10:12:06;;;;;;;15.53;8.43;;;;;;;-145.18;100.00;46816.66;5014849;28;20482;-88
2024/01/29 10:14:32;;;;;;;14.63;9.10;;;;;;;-145.18;100.00;46812.75;4997336;28;20030;-90
2024/01/29 10:16:57;;;;;;;16.17;8.40;;;;;;;-145.18;100.00;46810.81;4996222;28;20030;-92
2024/01/29 10:19:22;;;;;;;18.53;8.77;;;;;;;-145.18;100.00;46804.94;5014459;28;20064;-91
2024/01/29 10:21:48;;;;;;;16.83;9.80;;;;;;;-145.18;100.00;46801.03;4996665;28;20042;-90
2024/01/29 10:24:17;;;;;;;14.27;8.50;;;;;;;-145.18;100.00;46801.03;5002764;28;20061;-90
2024/01/29 10:26:44;;;;;;;15.43;8.47;;;;;;;-145.18;100.00;46801.03;5025861;28;20076;-89
2024/01/29 10:29:10;;;;;;;14.40;8.77;;;;;;;-145.18;100.00;46793.22;5011131;28;20362;-93
2024/01/29 10:31:36;;;;;;;18.10;8.87;;;;;;;-145.18;100.00;46795.19;5016659;28;20274;-88
2024/01/29 10:34:03;;;;;;;13.83;9.03;;;;;;;-145.18;100.00;46785.41;5013654;28;20267;-89
2024/01/29 10:36:29;;;;;;;14.20;8.37;;;;;;;-145.18;100.00;46781.50;5014124;28;20279;-88
2024/01/29 10:38:58;;;;;;;18.53;9.10;;;;;;;-145.18;100.00;46783.47;5013863;28;20325;-90
2024/01/29 10:41:24;;;;;;;16.57;9.87;;;;;;;-145.18;100.00;46787.38;4980590;28;20033;-86
2024/01/29 10:43:53;;;;;;;21.97;9.40;;;;;;;-145.18;100.00;46787.38;5013686;28;20401;-88
2024/01/29 10:46:21;;;;;;;21.50;9.40;;;;;;;-145.18;100.00;46785.41;4996631;28;20358;-89
2024/01/29 10:48:48;;;;;;;18.53;10.53;;;;;;;-145.18;100.00;46779.56;5013638;28;20305;-90
2024/01/29 10:51:15;;;;;;;19.40;9.50;;;;;;;-145.18;100.00;46777.59;4980651;28;20743;-91
2024/01/29 10:53:41;;;;;;;17.70;9.33;;;;;;;-145.18;100.00;46779.56;5028909;28;20274;-91
2024/01/29 10:56:08;;;;;;;16.57;9.43;;;;;;;-145.18;100.00;46773.69;5006564;28;20279;-80